Terminal Aerodrome Forecast
Issued by NWS

Home | Current Version | Previous Version | Text Only | Print | Product List | Glossary Off
Versions: 1 2 3 4 5 6 7 8 9 10 11 12 13 14 15 16 17 18 19 20 21 22 23 24 25 26

000
FTUS45 KGGW 272300
TAFGDV
TAF
KGDV 272324Z 2800/2824 03019G26KT P6SM BKN100
     FM280200 03020G30KT P6SM VCSH BKN080
     FM280900 01016G23KT P6SM -SHRA OVC050
     FM281300 04014G20KT P6SM -RA OVC050
      AMD LTD TO CLD VIS AND WIND=

USA.gov is the U.S. government's official web portal to all federal, state and local government web resources and services.